AirNav   Phillips 66 Aviation Fuel
 
 1300 users online  

04NC Wakemed Cary Hospital Heliport
Cary, North Carolina, USA

GOING TO CARY?


FAA INFORMATION EFFECTIVE 20 JULY 2017

Location

FAA Identifier: 04NC
Lat/Long: 35-44-21.3500N / 078-46-58.0200W
35-44.355833N / 078-46.967000W
35.7392639 / -78.7827833
(estimated)
Elevation: 445 ft. / 136 m (estimated)
Variation: 07W (1990)
From city: 5 miles SE of CARY, NC
Time zone: UTC -4 (UTC -5 during Standard Time)
Zip code: 27511

Heliport Operations

Heliport use: Private use, MEDICAL USE.
Activation date: 11/1992
Control tower: no
ARTCC: WASHINGTON CENTER
FSS: RALEIGH FLIGHT SERVICE STATION
Attendance: CONTINUOUS
Wind indicator: yes
Segmented circle: no

Heliport Communications

WX ASOS at RDU (8 nm N): PHONE 919-840-0816
WX ASOS at IGX (18 nm NW): 134.575 (919-942-2538)
WX AWOS-3 at TTA (18 nm SW): 120.625 (919-708-5382)

Nearby radio navigation aids

VOR radial/distance  VOR name  Freq  Var
RDUr184/8.0RALEIGH/DURHAM VORTAC117.2004W

 
NDB name  Hdg/Dist  Freq  Var  ID
LEEVY202/11.735007WLE .-.. .
HARNETT352/19.141708WHQT .... --.- -
POPE022/31.933807WPOB .--. --- -...
PERSON163/32.722008WHUR .... ..- .-.
HUNTSBORO202/34.627109WHXO .... -..- ---
FORT BRAGG009/36.039307WFGP ..-. --. .--.

Heliport Services

Runway Information

Helipad H1

Dimensions: 91 x 35 ft. / 28 x 11 m
Surface: asphalt
Latitude: 35-44.355833N
Longitude: 078-46.967000W
Elevation: 445.0 ft.
Traffic pattern: leftleft

Heliport Ownership and Management from official FAA records

Ownership: Publicly-owned
Owner: WAKE MED HEALTH & HOSPITALS
1900 KILDAIRE FARM ROAD
CARY, NC 27512-6616
Phone 919-350-2397
Manager: DERAK DILLAHUNT
1900 KILDAIRE FARM ROAD
CARY, NC 27512-6616
Phone 919-350-2397

Additional Remarks

A52-H1 HIGH TENSION WIRES 200 FT SOUTH OF HELIPAD.

Instrument Procedures

There are no published instrument procedures at 04NC.

Some nearby airports with instrument procedures:

KRDU - Raleigh-Durham International Airport (8 nm N)
KIGX - Horace Williams Airport (18 nm NW)
KTTA - Raleigh Executive Jetport at Sanford-Lee County Airport (18 nm SW)
KHRJ - Harnett Regional Jetport Airport (22 nm S)
KJNX - Johnston Regional Airport (23 nm SE)
 
Loc | Ops | Rwys | IFR | FBO | Links
Com | Nav | Svcs | Stats | Notes


 
Area around 04NC (Wakemed Cary Hospital Heliport)
 
Road maps at: MapQuest Bing Google
 
Aerial photo
No photo
 
Sectional chart

 
Airport distance calculator
Flying to Wakemed Cary Hospital Heliport? Find the distance to fly.

From to 04NC

Sunrise and sunset
Times for 26-Jul-2017
 Local
(UTC-4)
 Zulu
(UTC)
Morning civil twilight05:5109:51
Sunrise06:1910:19
Sunset20:2400:24
Evening civil twilight20:5200:52

Current date and time
Zulu (UTC)  26-Jul-2017 21:49:50
Local (UTC-4)  26-Jul-2017 17:49:50
 
METAR
KRDU 
8nm N 
262051Z 15005KT 10SM SCT060 BKN080 BKN250 31/18 A3011 RMK AO2 SLP191 TCU DSNT E-SE T03060183 56019 $
KIGX 
18nm NW 
262056Z AUTO 00000KT 10SM FEW050 FEW090 29/19 A3011 RMK AO2 SLP190 T02940194 56019
KTTA 
18nm SW 
262130Z AUTO 13004KT 10SM CLR 31/19 A3008 RMK AO2 T03060193
TAF
KRDU 
8nm N 
261732Z 2618/2718 VRB04KT P6SM FEW040 SCT120 FM271600 20007KT P6SM SCT040 SCT150
NOTAMs
Click for the latest NOTAMs
NOTAMs are issued by the DoD/FAA and will open in a separate window not controlled by AirNav.

 

 
 

Would you like to see your business listed on this page?

 If your business provides an interesting product or service to pilots, flight crews, aircraft, or users of the Wakemed Cary Hospital Heliport, you should consider listing it here.  To start the listing process, click on the button below
 
Add a business
 

Other Pages about Wakemed Cary Hospital Heliport

Update a link
 
Copyright © AirNav, LLC. All rights reserved. Privacy Policy  Contact